createdAt,value
2022-12-31T00:00:45.592Z,59.74
2022-12-31T00:01:50.132Z,59.92
2022-12-31T00:02:54.858Z,59.93
2022-12-31T00:03:59.215Z,59.98
2022-12-31T00:05:03.491Z,59.72
2022-12-31T00:06:07.756Z,59.95
2022-12-31T00:07:11.998Z,60.38
2022-12-31T00:08:16.264Z,59.99
2022-12-31T00:09:20.501Z,60.26
2022-12-31T00:10:24.747Z,60.62
2022-12-31T00:11:29.014Z,60.66
2022-12-31T00:12:33.340Z,60.15
2022-12-31T00:13:37.596Z,60.08
2022-12-31T00:14:41.865Z,59.72
2022-12-31T00:15:46.360Z,60.15
2022-12-31T00:16:50.703Z,60.89
2022-12-31T00:17:55.331Z,60.93
2022-12-31T00:18:59.611Z,60.74
2022-12-31T00:20:03.935Z,60.2
2022-12-31T00:21:08.185Z,60.23
2022-12-31T00:22:12.435Z,60.02
2022-12-31T00:23:16.727Z,60.31
2022-12-31T00:24:20.992Z,60.02
2022-12-31T00:25:25.228Z,60.54
2022-12-31T00:26:29.546Z,60.48
2022-12-31T00:27:33.796Z,60.16
2022-12-31T00:28:38.131Z,60.82
2022-12-31T00:29:42.410Z,60.12
2022-12-31T00:30:46.832Z,60.56
2022-12-31T00:31:51.124Z,60.51
2022-12-31T00:32:55.343Z,60.67
2022-12-31T00:34:01.961Z,60.75
2022-12-31T00:35:06.202Z,60.19
2022-12-31T00:36:10.515Z,60.65
2022-12-31T00:37:14.776Z,60.4
2022-12-31T00:38:19.015Z,60.74
2022-12-31T00:39:23.320Z,60.48
2022-12-31T00:40:27.577Z,61.18
2022-12-31T00:41:31.828Z,61.58
2022-12-31T00:42:36.083Z,61.68
2022-12-31T00:43:40.367Z,60.58
2022-12-31T00:44:44.655Z,60.94
2022-12-31T00:45:49.045Z,60.78
2022-12-31T00:46:53.284Z,61.26
2022-12-31T00:47:57.572Z,61.42
2022-12-31T00:49:01.829Z,60.81
2022-12-31T00:50:06.136Z,61.52
2022-12-31T00:51:10.404Z,60.83
2022-12-31T00:52:14.714Z,60.42
2022-12-31T00:53:18.981Z,60.64
2022-12-31T00:54:23.252Z,61.38
2022-12-31T00:55:27.590Z,60.47
2022-12-31T00:56:31.904Z,60.56
2022-12-31T00:57:36.429Z,61.34
2022-12-31T00:58:40.668Z,60.74
2022-12-31T00:59:44.911Z,60.76
2022-12-31T01:00:49.197Z,61.42
2022-12-31T01:01:53.735Z,61.64
2022-12-31T01:02:58.536Z,61.32
2022-12-31T01:04:02.889Z,61.95
2022-12-31T01:05:07.177Z,61.09
2022-12-31T01:06:11.427Z,62.13
2022-12-31T01:07:15.700Z,62.2
2022-12-31T01:08:20.005Z,62.3
2022-12-31T01:09:24.291Z,61.75
2022-12-31T01:10:28.519Z,60.94
2022-12-31T01:11:32.767Z,62.33
2022-12-31T01:12:37.060Z,62.34
2022-12-31T01:13:41.332Z,62.27
2022-12-31T01:14:45.623Z,61.59
2022-12-31T01:15:50.006Z,62.37
2022-12-31T01:16:54.306Z,61.61
2022-12-31T01:17:58.575Z,61.42
2022-12-31T01:19:02.881Z,61.5
2022-12-31T01:20:07.176Z,62.26
2022-12-31T01:21:11.416Z,62.39
2022-12-31T01:22:15.698Z,62.42
2022-12-31T01:23:19.936Z,61.67
2022-12-31T01:24:24.258Z,62.46
2022-12-31T01:25:28.526Z,61.56
2022-12-31T01:26:32.817Z,61.86
2022-12-31T01:27:37.099Z,62.5
2022-12-31T01:28:41.341Z,62.6
2022-12-31T01:29:45.634Z,62.62
2022-12-31T01:30:50.017Z,62.69
2022-12-31T01:31:54.393Z,62.02
2022-12-31T01:32:58.628Z,61.25
2022-12-31T01:34:02.884Z,62.31
2022-12-31T01:35:07.148Z,61.58
2022-12-31T01:36:11.370Z,62.64
2022-12-31T01:37:15.671Z,61.87
2022-12-31T01:38:19.911Z,62.48
2022-12-31T01:39:24.163Z,61.81
2022-12-31T01:40:28.409Z,62.76
2022-12-31T01:41:32.637Z,62.5
2022-12-31T01:42:36.924Z,61.26
2022-12-31T01:43:41.177Z,62.13
2022-12-31T01:44:45.397Z,62.26
2022-12-31T01:45:49.655Z,62.71
2022-12-31T01:46:53.956Z,61.23
2022-12-31T01:47:58.241Z,61.86
2022-12-31T01:49:02.474Z,61.8
2022-12-31T01:50:06.717Z,62.35
2022-12-31T01:51:10.981Z,62.92
2022-12-31T01:52:15.290Z,62.81
2022-12-31T01:53:19.609Z,62.91
2022-12-31T01:54:23.880Z,62.06
2022-12-31T01:55:28.188Z,62.78
2022-12-31T01:56:32.446Z,61.69
2022-12-31T01:57:36.686Z,61.86
2022-12-31T01:58:40.927Z,61.24
2022-12-31T01:59:45.199Z,61.72
2022-12-31T02:00:49.447Z,61.14
2022-12-31T02:01:54.221Z,61.43
2022-12-31T02:02:58.684Z,62.02
2022-12-31T02:04:02.977Z,61.39
2022-12-31T02:05:07.243Z,62.61
2022-12-31T02:06:11.476Z,62.74
2022-12-31T02:07:15.838Z,62.83
2022-12-31T02:08:20.088Z,63.03
2022-12-31T02:09:24.413Z,62.8
2022-12-31T02:10:28.671Z,61.63
2022-12-31T02:11:32.993Z,61.72
2022-12-31T02:12:37.330Z,61.55
2022-12-31T02:13:41.708Z,61.2
2022-12-31T02:14:45.943Z,61.34
2022-12-31T02:15:50.369Z,62.2
2022-12-31T02:16:54.646Z,62.33
2022-12-31T02:17:58.942Z,61.92
2022-12-31T02:19:03.191Z,61.87
2022-12-31T02:20:07.475Z,61.46
2022-12-31T02:21:11.813Z,61.69
2022-12-31T02:22:16.209Z,62.52
2022-12-31T02:23:20.763Z,62.85
2022-12-31T02:24:25.231Z,62.94
2022-12-31T02:25:31.747Z,62.17
2022-12-31T02:26:37.017Z,62.05
2022-12-31T02:27:41.303Z,62.27
2022-12-31T02:28:45.614Z,62.36
2022-12-31T02:29:49.843Z,62.78
2022-12-31T02:30:54.295Z,62.37
2022-12-31T02:31:58.631Z,61.8
2022-12-31T02:33:04.890Z,62.62
2022-12-31T02:34:09.163Z,62.64
2022-12-31T02:35:13.446Z,62.12
2022-12-31T02:36:17.687Z,62.21
2022-12-31T02:37:21.942Z,62.01
2022-12-31T02:38:26.211Z,62.22
2022-12-31T02:39:30.440Z,62.41
2022-12-31T02:40:35.013Z,62.94
2022-12-31T02:41:39.275Z,62.86
2022-12-31T02:42:43.562Z,62.75
2022-12-31T02:43:47.830Z,62.14
2022-12-31T02:44:52.097Z,62.68
2022-12-31T02:45:56.351Z,62.72
2022-12-31T02:47:00.595Z,62.47
2022-12-31T02:48:04.844Z,61.93
2022-12-31T02:49:09.071Z,61.81
2022-12-31T02:50:13.340Z,62.47
2022-12-31T02:51:17.590Z,62.63
2022-12-31T02:52:21.833Z,61.89
2022-12-31T02:53:26.058Z,62.41
2022-12-31T02:54:30.327Z,62.78
2022-12-31T02:55:34.575Z,62.53
2022-12-31T02:56:41.137Z,61.76
2022-12-31T02:57:45.367Z,62.77
2022-12-31T02:58:49.658Z,62.87
2022-12-31T02:59:53.886Z,62.89
2022-12-31T03:00:58.490Z,61.68
2022-12-31T03:02:03.198Z,61.77
2022-12-31T03:03:07.463Z,61.99
2022-12-31T03:04:11.729Z,62.21
2022-12-31T03:05:16.006Z,62.02
2022-12-31T03:06:20.267Z,61.91
2022-12-31T03:07:24.562Z,62.33
2022-12-31T03:08:28.822Z,61.65
2022-12-31T03:09:33.123Z,61.54
2022-12-31T03:10:37.455Z,61.88
2022-12-31T03:11:41.692Z,61.47
2022-12-31T03:12:46.014Z,61.3
2022-12-31T03:13:50.263Z,61.72
2022-12-31T03:14:54.505Z,61.67
2022-12-31T03:15:58.948Z,62.27
2022-12-31T03:17:03.213Z,61.96
2022-12-31T03:18:07.489Z,61.16
2022-12-31T03:19:11.974Z,61.16
2022-12-31T03:20:16.256Z,61.63
2022-12-31T03:21:20.800Z,61.41
2022-12-31T03:22:25.095Z,61.69
2022-12-31T03:23:29.420Z,61.41
2022-12-31T03:24:33.672Z,61.6
2022-12-31T03:25:37.933Z,61.51
2022-12-31T03:26:42.203Z,61.59
2022-12-31T03:27:46.459Z,61.13
2022-12-31T03:28:50.759Z,61.18
2022-12-31T03:29:54.999Z,61.47
2022-12-31T03:30:59.398Z,62.03
2022-12-31T03:32:03.733Z,61.28
2022-12-31T03:33:08.011Z,61.27
2022-12-31T03:34:12.290Z,61.21
2022-12-31T03:35:16.571Z,61.02
2022-12-31T03:36:21.835Z,61.18
2022-12-31T03:37:26.053Z,61.13
2022-12-31T03:38:30.329Z,61.93
2022-12-31T03:39:34.570Z,61.36
2022-12-31T03:40:38.797Z,61.65
2022-12-31T03:41:43.074Z,61.58
2022-12-31T03:42:47.294Z,61.98
2022-12-31T03:43:51.641Z,62
2022-12-31T03:44:55.963Z,61.83
2022-12-31T03:46:00.449Z,62.25
2022-12-31T03:47:04.777Z,62.79
2022-12-31T03:48:09.061Z,61.42
2022-12-31T03:49:13.340Z,62.73
2022-12-31T03:50:17.636Z,61.75
2022-12-31T03:51:21.898Z,62.57
2022-12-31T03:52:26.161Z,62.17
2022-12-31T03:53:30.423Z,62.46
2022-12-31T03:54:34.691Z,62
2022-12-31T03:55:39.009Z,61.7
2022-12-31T03:56:43.266Z,62.67
2022-12-31T03:57:47.528Z,62.94
2022-12-31T03:58:51.790Z,63.01
2022-12-31T03:59:57.055Z,62.31
2022-12-31T04:01:01.831Z,62.96
2022-12-31T04:02:06.602Z,63.14
2022-12-31T04:03:11.157Z,62.47
2022-12-31T04:04:15.433Z,62.13
2022-12-31T04:05:19.738Z,61.84
2022-12-31T04:06:24.037Z,61.67
2022-12-31T04:07:28.297Z,62.74
2022-12-31T04:08:32.538Z,62.49
2022-12-31T04:09:36.814Z,62.05
2022-12-31T04:10:41.063Z,63.06
2022-12-31T04:11:45.318Z,63.02
2022-12-31T04:12:49.600Z,62.75
2022-12-31T04:13:53.864Z,62.25
2022-12-31T04:14:58.107Z,63.15
2022-12-31T04:16:02.597Z,62.66
2022-12-31T04:17:06.859Z,62.08
2022-12-31T04:18:11.215Z,61.95
2022-12-31T04:19:15.471Z,61.98
2022-12-31T04:20:19.727Z,62.61
2022-12-31T04:21:24.029Z,62.14
2022-12-31T04:22:28.292Z,62.47
2022-12-31T04:23:32.557Z,63.1
2022-12-31T04:24:36.810Z,62.84
2022-12-31T04:25:41.110Z,63.16
2022-12-31T04:26:45.387Z,63.12
2022-12-31T04:27:49.644Z,62.88
2022-12-31T04:28:53.895Z,62.95
2022-12-31T04:29:58.154Z,62.34
2022-12-31T04:31:02.403Z,62.65
2022-12-31T04:32:06.831Z,63.16
2022-12-31T04:33:11.158Z,63.24
2022-12-31T04:34:15.433Z,62.54
2022-12-31T04:35:19.695Z,63.25
2022-12-31T04:36:23.948Z,63.12
2022-12-31T04:37:28.202Z,63
2022-12-31T04:38:32.506Z,63.14
2022-12-31T04:39:36.764Z,62.95
2022-12-31T04:40:40.997Z,62.99
2022-12-31T04:41:45.275Z,62.92
2022-12-31T04:42:49.524Z,63.17
2022-12-31T04:43:53.830Z,62.98
2022-12-31T04:44:58.122Z,62.76
2022-12-31T04:46:02.523Z,62.41
2022-12-31T04:47:06.837Z,62.48
2022-12-31T04:48:11.117Z,63.08
2022-12-31T04:49:15.416Z,62.42
2022-12-31T04:50:19.693Z,61.92
2022-12-31T04:51:24.193Z,62.18
2022-12-31T04:52:28.463Z,62.5
2022-12-31T04:53:32.720Z,62.6
2022-12-31T04:54:37.404Z,63.03
2022-12-31T04:55:41.640Z,62.77
2022-12-31T04:56:45.890Z,62.98
2022-12-31T04:57:50.156Z,63.18
2022-12-31T04:58:54.447Z,62.97
2022-12-31T04:59:58.692Z,63.16
2022-12-31T05:01:03.326Z,62.75
2022-12-31T05:02:08.530Z,62.22
2022-12-31T05:03:13.404Z,62.3
2022-12-31T05:04:17.753Z,62.22
2022-12-31T05:05:22.012Z,61.98
2022-12-31T05:06:26.282Z,61.65
2022-12-31T05:07:30.670Z,61.92
2022-12-31T05:08:34.926Z,61.9
2022-12-31T05:09:39.172Z,62.45
2022-12-31T05:10:44.453Z,62.4
2022-12-31T05:11:48.702Z,62.07
2022-12-31T05:12:52.981Z,61.79
2022-12-31T05:13:57.328Z,61.46
2022-12-31T05:15:01.571Z,61.46
2022-12-31T05:16:05.836Z,61.1
2022-12-31T05:17:10.101Z,60.93
2022-12-31T05:18:14.394Z,60.87
2022-12-31T05:19:18.867Z,60.64
2022-12-31T05:20:23.164Z,60.66
2022-12-31T05:21:27.406Z,60.54
2022-12-31T05:22:31.758Z,60.65
2022-12-31T05:23:36.044Z,60.53
2022-12-31T05:24:40.363Z,60.56
2022-12-31T05:25:44.593Z,60.43
2022-12-31T05:26:48.818Z,60.44
2022-12-31T05:27:53.063Z,60.39
2022-12-31T05:28:57.314Z,60.35
2022-12-31T05:30:01.663Z,60.34
2022-12-31T05:31:06.323Z,60.36
2022-12-31T05:32:10.672Z,60.25
2022-12-31T05:33:14.896Z,60.23
2022-12-31T05:34:19.133Z,60.32
2022-12-31T05:35:23.498Z,60.23
2022-12-31T05:36:27.770Z,60.23
2022-12-31T05:37:32.031Z,60.21
2022-12-31T05:38:36.253Z,60.44
2022-12-31T05:39:40.510Z,60.36
2022-12-31T05:40:44.837Z,60.32
2022-12-31T05:41:49.102Z,60.51
2022-12-31T05:42:53.364Z,60.77
2022-12-31T05:43:57.635Z,60.74
2022-12-31T05:45:01.908Z,60.55
2022-12-31T05:46:06.497Z,60.71
2022-12-31T05:47:10.881Z,60.75
2022-12-31T05:48:15.338Z,60.71
2022-12-31T05:49:19.592Z,60.68
2022-12-31T05:50:23.902Z,60.76
2022-12-31T05:51:28.207Z,60.8
2022-12-31T05:52:32.445Z,60.92
2022-12-31T05:53:36.689Z,60.79
2022-12-31T05:54:40.933Z,60.97
2022-12-31T05:55:45.241Z,60.95
2022-12-31T05:56:49.521Z,61.08
2022-12-31T05:57:53.787Z,61.11
2022-12-31T05:58:58.033Z,60.59
2022-12-31T06:00:02.278Z,61.18
2022-12-31T06:01:06.678Z,61.32
2022-12-31T06:02:10.945Z,60.63
2022-12-31T06:03:15.807Z,61.14
2022-12-31T06:04:20.115Z,60.75
2022-12-31T06:05:28.231Z,60.94
2022-12-31T06:06:32.511Z,60.42
2022-12-31T06:07:36.793Z,60.53
2022-12-31T06:08:41.081Z,60.59
2022-12-31T06:09:45.333Z,61.05
2022-12-31T06:10:49.615Z,60.72
2022-12-31T06:11:53.907Z,60.71
2022-12-31T06:12:58.182Z,60.66
2022-12-31T06:14:02.472Z,60.95
2022-12-31T06:15:06.736Z,61.02
2022-12-31T06:16:11.498Z,61.17
2022-12-31T06:17:15.948Z,60.64
2022-12-31T06:18:20.248Z,60.88
2022-12-31T06:19:24.544Z,60.81
2022-12-31T06:20:28.827Z,60.9
2022-12-31T06:21:33.084Z,61.17
2022-12-31T06:22:37.317Z,60.89
2022-12-31T06:23:41.554Z,60.69
2022-12-31T06:24:45.849Z,60.81
2022-12-31T06:25:50.093Z,60.79
2022-12-31T06:26:54.397Z,60.8
2022-12-31T06:27:58.628Z,60.81
2022-12-31T06:29:02.862Z,60.77
2022-12-31T06:30:07.120Z,60.9
2022-12-31T06:31:11.596Z,60.96
2022-12-31T06:32:15.901Z,60.73
2022-12-31T06:33:20.378Z,60.91
2022-12-31T06:34:24.607Z,60.95
2022-12-31T06:35:28.867Z,60.86
2022-12-31T06:36:33.142Z,60.79
2022-12-31T06:37:37.485Z,60.79
2022-12-31T06:38:41.761Z,61.29
2022-12-31T06:39:46.116Z,60.81
2022-12-31T06:40:50.355Z,61.15
2022-12-31T06:41:54.591Z,60.9
2022-12-31T06:43:02.229Z,61.14
2022-12-31T06:44:06.739Z,60.8
2022-12-31T06:45:11.006Z,60.8
2022-12-31T06:46:15.511Z,60.88
2022-12-31T06:47:19.846Z,60.78
2022-12-31T06:48:24.095Z,60.85
2022-12-31T06:49:28.421Z,61.3
2022-12-31T06:50:32.678Z,61.32
2022-12-31T06:51:36.955Z,60.95
2022-12-31T06:52:41.225Z,61.25
2022-12-31T06:53:45.470Z,61.43
2022-12-31T06:54:50.743Z,61.1
2022-12-31T06:55:55.004Z,61.17
2022-12-31T06:56:59.309Z,60.89
2022-12-31T06:58:03.575Z,60.84
2022-12-31T06:59:07.851Z,60.75
2022-12-31T07:00:12.175Z,60.9
2022-12-31T07:01:16.685Z,60.98
2022-12-31T07:02:21.182Z,60.9
2022-12-31T07:03:25.594Z,60.91
2022-12-31T07:04:29.821Z,61.09
2022-12-31T07:05:34.024Z,60.96
2022-12-31T07:06:38.296Z,60.77
2022-12-31T07:07:42.562Z,60.94
2022-12-31T07:08:46.846Z,60.9
2022-12-31T07:09:51.106Z,61.13
2022-12-31T07:10:55.356Z,60.78
2022-12-31T07:11:59.646Z,60.79
2022-12-31T07:13:03.900Z,60.76
2022-12-31T07:14:08.155Z,61.01
2022-12-31T07:15:12.415Z,60.79
2022-12-31T07:16:16.840Z,60.9
2022-12-31T07:17:21.109Z,60.74
2022-12-31T07:18:25.425Z,60.84
2022-12-31T07:19:29.662Z,60.93
2022-12-31T07:20:33.904Z,60.7
2022-12-31T07:21:38.164Z,60.72
2022-12-31T07:22:42.450Z,60.74
2022-12-31T07:23:46.721Z,61.03
2022-12-31T07:24:50.973Z,60.93
2022-12-31T07:25:55.212Z,61
2022-12-31T07:26:59.485Z,61.19
2022-12-31T07:28:03.790Z,61.12
2022-12-31T07:29:08.072Z,60.97
2022-12-31T07:30:12.356Z,61.35
2022-12-31T07:31:16.715Z,60.8
2022-12-31T07:32:20.988Z,60.68
2022-12-31T07:33:25.252Z,60.58
2022-12-31T07:34:29.491Z,61.08
2022-12-31T07:35:37.409Z,60.75
2022-12-31T07:36:41.643Z,60.73
2022-12-31T07:37:45.939Z,60.79
2022-12-31T07:38:50.240Z,60.72
2022-12-31T07:39:54.553Z,60.76
2022-12-31T07:41:09.246Z,60.78
2022-12-31T07:42:14.053Z,60.7
2022-12-31T07:43:18.346Z,60.71
2022-12-31T07:44:22.605Z,60.94
2022-12-31T07:45:26.844Z,60.77
2022-12-31T07:46:31.367Z,60.92
2022-12-31T07:47:35.669Z,61
2022-12-31T07:48:39.908Z,60.99
2022-12-31T07:49:44.142Z,60.91
2022-12-31T07:50:48.478Z,60.65
2022-12-31T07:51:52.758Z,60.97
2022-12-31T07:52:59.252Z,61
2022-12-31T07:54:06.401Z,60.85
2022-12-31T07:55:12.997Z,60.86
2022-12-31T07:56:17.283Z,60.8
2022-12-31T07:57:21.581Z,60.88
2022-12-31T07:58:26.110Z,61.09
2022-12-31T07:59:30.343Z,60.64
2022-12-31T08:00:34.745Z,60.89
2022-12-31T08:01:39.587Z,61.06
2022-12-31T08:02:44.120Z,61.08
2022-12-31T08:03:48.398Z,61.11
2022-12-31T08:04:52.709Z,61.12
2022-12-31T08:05:56.961Z,61.33
2022-12-31T08:07:01.239Z,61.21
2022-12-31T08:08:05.542Z,61.47
2022-12-31T08:09:09.771Z,61.38
2022-12-31T08:10:19.710Z,61.33
2022-12-31T08:11:23.976Z,61.41
2022-12-31T08:12:28.379Z,61.5
2022-12-31T08:13:32.631Z,61.74
2022-12-31T08:14:36.866Z,61.43
2022-12-31T08:15:41.168Z,61.65
2022-12-31T08:16:45.630Z,61.54
2022-12-31T08:17:50.139Z,61.8
2022-12-31T08:18:54.409Z,61.77
2022-12-31T08:19:58.652Z,61.97
2022-12-31T08:21:02.956Z,61.7
2022-12-31T08:22:07.231Z,61.9
2022-12-31T08:23:12.510Z,61.76
2022-12-31T08:24:16.756Z,61.88
2022-12-31T08:25:21.069Z,61.83
2022-12-31T08:26:25.327Z,61.98
2022-12-31T08:27:29.574Z,62
2022-12-31T08:28:33.845Z,61.9
2022-12-31T08:29:38.124Z,61.87
2022-12-31T08:30:42.389Z,61.9
2022-12-31T08:31:46.831Z,61.74
2022-12-31T08:32:51.189Z,61.63
2022-12-31T08:33:57.540Z,61.97
2022-12-31T08:35:03.728Z,61.86
2022-12-31T08:36:08.107Z,61.48
2022-12-31T08:37:12.430Z,61.69
2022-12-31T08:38:16.720Z,61.7
2022-12-31T08:39:20.954Z,61.99
2022-12-31T08:40:25.492Z,61.69
2022-12-31T08:41:29.781Z,61.55
2022-12-31T08:42:34.022Z,61.84
2022-12-31T08:43:38.285Z,61.81
2022-12-31T08:44:42.553Z,61.85
2022-12-31T08:45:46.980Z,61.7
2022-12-31T08:46:51.275Z,61.89
2022-12-31T08:48:01.593Z,61.89
2022-12-31T08:49:05.828Z,61.71
2022-12-31T08:50:10.065Z,61.59
2022-12-31T08:51:14.323Z,61.57
2022-12-31T08:52:18.572Z,61.69
2022-12-31T08:53:22.827Z,61.68
2022-12-31T08:54:27.096Z,61.89
2022-12-31T08:55:31.363Z,61.63
2022-12-31T08:56:35.613Z,61.82
2022-12-31T08:57:39.914Z,61.77
2022-12-31T08:58:44.184Z,61.69
2022-12-31T08:59:48.507Z,61.73
2022-12-31T09:00:52.999Z,61.3
2022-12-31T09:01:57.717Z,61.73
2022-12-31T09:03:02.132Z,61.68
2022-12-31T09:04:06.584Z,61.51
2022-12-31T09:05:10.913Z,61.54
2022-12-31T09:06:15.208Z,61.76
2022-12-31T09:07:19.512Z,61.41
2022-12-31T09:08:23.777Z,61.55
2022-12-31T09:09:28.049Z,61.13
2022-12-31T09:10:32.273Z,61.83
2022-12-31T09:11:36.581Z,61.51
2022-12-31T09:12:40.847Z,61.8
2022-12-31T09:13:45.109Z,61.2
2022-12-31T09:14:49.369Z,61.18
2022-12-31T09:15:53.644Z,61.23
2022-12-31T09:16:58.013Z,61.62
2022-12-31T09:18:02.277Z,61.6
2022-12-31T09:19:06.542Z,61.44
2022-12-31T09:20:10.805Z,62
2022-12-31T09:21:15.060Z,61.9
2022-12-31T09:22:19.309Z,61.15
2022-12-31T09:23:23.563Z,61.52
2022-12-31T09:24:27.840Z,61.14
2022-12-31T09:25:32.096Z,61
2022-12-31T09:26:36.404Z,61.3
2022-12-31T09:27:40.689Z,61.2
2022-12-31T09:28:44.983Z,61.49
2022-12-31T09:29:49.212Z,61.37
2022-12-31T09:30:53.451Z,61.39
2022-12-31T09:31:57.925Z,61.48
2022-12-31T09:33:03.319Z,61.57
2022-12-31T09:34:07.581Z,61.19
2022-12-31T09:35:11.867Z,61.18
2022-12-31T09:36:16.147Z,61.09
2022-12-31T09:37:20.432Z,61.42
2022-12-31T09:38:24.748Z,61.5
2022-12-31T09:39:29.005Z,61.49
2022-12-31T09:40:33.507Z,61.02
2022-12-31T09:41:37.878Z,61.35
2022-12-31T09:42:42.145Z,61.17
2022-12-31T09:43:46.388Z,60.99
2022-12-31T09:44:50.628Z,61.04
2022-12-31T09:45:55.016Z,60.98
2022-12-31T09:46:59.321Z,60.91
2022-12-31T09:48:03.547Z,60.76
2022-12-31T09:49:07.836Z,60.94
2022-12-31T09:50:12.067Z,60.39
2022-12-31T09:51:23.424Z,60.68
2022-12-31T09:52:29.287Z,60.79
2022-12-31T09:53:33.547Z,60.64
2022-12-31T09:54:37.794Z,60.65
2022-12-31T09:55:42.048Z,60.34
2022-12-31T09:56:46.279Z,60.25
2022-12-31T09:57:50.577Z,60
2022-12-31T09:58:54.835Z,59.89
2022-12-31T09:59:59.089Z,60.1
2022-12-31T10:01:03.934Z,60.27
2022-12-31T10:02:09.968Z,60.31
2022-12-31T10:03:14.550Z,60.31
2022-12-31T10:04:18.846Z,60.25
2022-12-31T10:05:23.107Z,60.4
2022-12-31T10:06:27.363Z,60.08
2022-12-31T10:07:31.632Z,60.41
2022-12-31T10:08:36.015Z,60.18
2022-12-31T10:09:40.290Z,60.27
2022-12-31T10:10:44.534Z,60.33
2022-12-31T10:11:48.903Z,60.32
2022-12-31T10:12:53.136Z,60.28
2022-12-31T10:13:57.454Z,59.84
2022-12-31T10:15:01.764Z,59.5
2022-12-31T10:16:06.061Z,60.01
2022-12-31T10:17:10.601Z,59.81
2022-12-31T10:18:14.845Z,59.73
2022-12-31T10:19:19.170Z,59.52
2022-12-31T10:20:23.431Z,59.45
2022-12-31T10:21:27.681Z,59.75
2022-12-31T10:22:31.919Z,59.73
2022-12-31T10:23:36.183Z,59.3
2022-12-31T10:24:40.493Z,59.62
2022-12-31T10:25:47.442Z,59.64
2022-12-31T10:26:55.454Z,59.51
2022-12-31T10:27:59.725Z,59.68
2022-12-31T10:29:04.248Z,59.77
2022-12-31T10:30:08.480Z,59.62
2022-12-31T10:31:12.953Z,60.09
2022-12-31T10:32:17.264Z,59.75
2022-12-31T10:33:22.062Z,59.77
2022-12-31T10:34:26.319Z,59.93
2022-12-31T10:35:30.594Z,59.97
2022-12-31T10:36:34.887Z,59.75
2022-12-31T10:37:39.415Z,59.92
2022-12-31T10:38:43.679Z,59.71
2022-12-31T10:39:47.939Z,59.76
2022-12-31T10:40:52.201Z,59.55
2022-12-31T10:41:56.489Z,59.89
2022-12-31T10:43:00.810Z,59.66
2022-12-31T10:44:05.077Z,59.75
2022-12-31T10:45:09.376Z,59.82
2022-12-31T10:46:22.547Z,59.97
2022-12-31T10:47:27.064Z,59.7
2022-12-31T10:48:31.319Z,59.69
2022-12-31T10:49:35.621Z,59.78
2022-12-31T10:50:39.893Z,59.74
2022-12-31T10:51:44.176Z,60.01
2022-12-31T10:52:48.423Z,60
2022-12-31T10:53:52.703Z,60.12
2022-12-31T10:54:56.991Z,59.99
2022-12-31T10:56:01.260Z,60.06
2022-12-31T10:57:05.563Z,59.8
2022-12-31T10:58:09.864Z,60.08
2022-12-31T10:59:14.120Z,59.74
2022-12-31T11:00:18.804Z,59.82
2022-12-31T11:01:23.493Z,59.91
2022-12-31T11:02:28.907Z,59.95
2022-12-31T11:03:33.429Z,60.14
2022-12-31T11:04:37.728Z,59.84
2022-12-31T11:05:42.033Z,59.74
2022-12-31T11:06:46.479Z,59.91
2022-12-31T11:07:50.741Z,59.73
2022-12-31T11:08:54.972Z,59.82
2022-12-31T11:09:59.240Z,60.13
2022-12-31T11:11:03.474Z,59.73
2022-12-31T11:12:07.794Z,59.85
2022-12-31T11:13:12.043Z,60.03
2022-12-31T11:14:16.304Z,59.75
2022-12-31T11:15:20.614Z,59.87
2022-12-31T11:16:25.064Z,59.87
2022-12-31T11:17:29.373Z,59.77
2022-12-31T11:18:33.611Z,59.78
2022-12-31T11:19:37.892Z,59.77
2022-12-31T11:20:42.147Z,59.97
2022-12-31T11:21:46.477Z,60.15
2022-12-31T11:22:53.051Z,59.93
2022-12-31T11:23:57.345Z,59.99
2022-12-31T11:25:01.632Z,60.02
2022-12-31T11:26:05.902Z,59.89
2022-12-31T11:27:10.162Z,59.89
2022-12-31T11:28:14.455Z,59.75
2022-12-31T11:29:18.713Z,59.98
2022-12-31T11:30:22.964Z,59.75
2022-12-31T11:31:27.386Z,59.97
2022-12-31T11:32:31.680Z,59.77
2022-12-31T11:33:35.972Z,60.17
2022-12-31T11:34:41.202Z,59.66
2022-12-31T11:35:45.484Z,59.67
2022-12-31T11:36:49.762Z,59.66
2022-12-31T11:37:54.017Z,60.15
2022-12-31T11:38:58.282Z,59.88
2022-12-31T11:40:02.548Z,59.86
2022-12-31T11:41:06.857Z,59.83
2022-12-31T11:42:11.100Z,59.85
2022-12-31T11:43:15.388Z,59.74
2022-12-31T11:44:19.672Z,60
2022-12-31T11:45:23.920Z,60.07
2022-12-31T11:46:28.431Z,60.01
2022-12-31T11:47:32.703Z,59.73
2022-12-31T11:48:36.933Z,59.86
2022-12-31T11:49:41.500Z,59.94
2022-12-31T11:50:45.741Z,59.77
2022-12-31T11:51:52.758Z,59.64
2022-12-31T11:52:56.989Z,59.86
2022-12-31T11:54:02.273Z,59.64
2022-12-31T11:55:06.556Z,59.94
2022-12-31T11:56:10.835Z,60.14
2022-12-31T11:57:15.114Z,59.81
2022-12-31T11:58:19.419Z,60.04
2022-12-31T11:59:23.666Z,59.84
2022-12-31T12:00:27.979Z,59.97
2022-12-31T12:01:32.480Z,59.94
2022-12-31T12:02:36.995Z,60.09
2022-12-31T12:03:41.672Z,60.11
2022-12-31T12:04:45.955Z,60.05
2022-12-31T12:05:50.240Z,60.13
2022-12-31T12:06:54.494Z,60.09
2022-12-31T12:07:58.813Z,59.96
2022-12-31T12:09:04.076Z,60.08
2022-12-31T12:10:08.339Z,60.08
2022-12-31T12:11:12.591Z,59.93
2022-12-31T12:12:16.837Z,59.58
2022-12-31T12:13:21.160Z,60.12
2022-12-31T12:14:25.422Z,59.94
2022-12-31T12:15:29.682Z,59.81
2022-12-31T12:16:34.146Z,59.84
2022-12-31T12:17:38.397Z,59.87
2022-12-31T12:18:42.785Z,59.82
2022-12-31T12:19:47.151Z,59.96
2022-12-31T12:20:51.415Z,59.99
2022-12-31T12:21:55.666Z,60
2022-12-31T12:23:00.943Z,60
2022-12-31T12:24:05.193Z,59.92
2022-12-31T12:25:09.511Z,59.8
2022-12-31T12:26:13.801Z,59.37
2022-12-31T12:27:18.102Z,59.22
2022-12-31T12:28:22.322Z,59.39
2022-12-31T12:29:26.607Z,58.92
2022-12-31T12:30:30.867Z,58.9
2022-12-31T12:31:35.420Z,58.83
2022-12-31T12:32:39.701Z,58.98
2022-12-31T12:33:43.964Z,58.77
2022-12-31T12:34:52.114Z,58.79
2022-12-31T12:35:56.361Z,58.84
2022-12-31T12:37:00.649Z,59
2022-12-31T12:38:04.973Z,58.83
2022-12-31T12:39:09.252Z,58.56
2022-12-31T12:40:13.607Z,59.01
2022-12-31T12:41:17.847Z,59
2022-12-31T12:42:22.085Z,58.9
2022-12-31T12:43:26.379Z,58.91
2022-12-31T12:44:30.627Z,58.71
2022-12-31T12:45:34.895Z,58.74
2022-12-31T12:46:41.509Z,59.01
2022-12-31T12:47:47.853Z,58.69
2022-12-31T12:48:52.107Z,58.78
2022-12-31T12:49:56.394Z,58.65
2022-12-31T12:51:00.875Z,58.63
2022-12-31T12:52:05.151Z,58.56
2022-12-31T12:53:09.394Z,58.45
2022-12-31T12:54:13.720Z,58.49
2022-12-31T12:55:17.988Z,58.52
2022-12-31T12:56:22.283Z,58.55
2022-12-31T12:57:26.552Z,58.42
2022-12-31T12:58:30.798Z,58.44
2022-12-31T12:59:35.080Z,58.43
2022-12-31T13:00:39.538Z,58.38
2022-12-31T13:01:44.694Z,58.49
2022-12-31T13:02:49.237Z,58.37
2022-12-31T13:04:36.118Z,58.42
2022-12-31T13:05:40.476Z,58.48
2022-12-31T13:06:44.737Z,58.2
2022-12-31T13:07:49.019Z,58.06
2022-12-31T13:08:53.290Z,58.13
2022-12-31T13:09:57.543Z,58.04
2022-12-31T13:11:01.812Z,58.08
2022-12-31T13:12:09.929Z,58.11
2022-12-31T13:13:29.567Z,58.23
2022-12-31T13:14:33.846Z,58.1
2022-12-31T13:15:38.133Z,58.19
2022-12-31T13:16:42.513Z,58.2
2022-12-31T13:18:01.403Z,58.21
2022-12-31T13:19:05.866Z,58.15
2022-12-31T13:20:10.243Z,58.02
2022-12-31T13:21:14.542Z,57.89
2022-12-31T13:22:18.789Z,58.08
2022-12-31T13:23:24.107Z,58.25
2022-12-31T13:24:28.331Z,58.08
2022-12-31T13:25:32.675Z,58.13
2022-12-31T13:26:36.977Z,58.25
2022-12-31T13:27:46.532Z,58.17
2022-12-31T13:28:50.796Z,58.28
2022-12-31T13:29:55.048Z,58.45
2022-12-31T13:31:08.178Z,58.59
2022-12-31T13:32:12.415Z,58.15
2022-12-31T13:33:16.658Z,58.45
2022-12-31T13:34:20.963Z,58.44
2022-12-31T13:35:25.470Z,58.63
2022-12-31T13:36:29.810Z,58.44
2022-12-31T13:37:34.068Z,58.62
2022-12-31T13:38:38.334Z,58.68
2022-12-31T13:39:42.591Z,58.72
2022-12-31T13:40:46.828Z,58.68
2022-12-31T13:41:51.151Z,58.73
2022-12-31T13:42:55.421Z,58.52
2022-12-31T13:43:59.714Z,58.74
2022-12-31T13:45:03.966Z,58.78
2022-12-31T13:46:08.439Z,58.78
2022-12-31T13:47:12.750Z,58.6
2022-12-31T13:48:17.020Z,58.76
2022-12-31T13:49:21.285Z,58.68
2022-12-31T13:50:25.581Z,58.58
2022-12-31T13:51:29.835Z,58.68
2022-12-31T13:52:34.134Z,58.74
2022-12-31T13:53:38.390Z,58.74
2022-12-31T13:54:42.671Z,58.8
2022-12-31T13:55:48.822Z,58.64